sensor_id;sensor_type;location;lat;lon;timestamp;P1;durP1;ratioP1;P2;durP2;ratioP2
27863;SDS011;15980;51.092;13.916;2023-01-23T00:04:52;49.40;;;10.88;;
27863;SDS011;15980;51.092;13.916;2023-01-23T00:14:52;39.13;;;13.20;;
27863;SDS011;15980;51.092;13.916;2023-01-23T00:24:53;40.35;;;11.15;;
27863;SDS011;15980;51.092;13.916;2023-01-23T00:34:53;43.85;;;10.93;;
27863;SDS011;15980;51.092;13.916;2023-01-23T00:44:53;34.97;;;10.40;;
27863;SDS011;15980;51.092;13.916;2023-01-23T00:54:53;29.60;;;10.27;;
27863;SDS011;15980;51.092;13.916;2023-01-23T01:04:54;34.58;;;10.40;;
27863;SDS011;15980;51.092;13.916;2023-01-23T01:14:54;47.20;;;10.10;;
27863;SDS011;15980;51.092;13.916;2023-01-23T01:24:54;32.20;;;10.85;;
27863;SDS011;15980;51.092;13.916;2023-01-23T01:34:54;30.25;;;10.35;;
27863;SDS011;15980;51.092;13.916;2023-01-23T01:44:59;34.33;;;9.98;;
27863;SDS011;15980;51.092;13.916;2023-01-23T01:55:02;31.42;;;8.70;;
27863;SDS011;15980;51.092;13.916;2023-01-23T02:05:11;26.88;;;10.40;;
27863;SDS011;15980;51.092;13.916;2023-01-23T02:15:14;33.50;;;10.05;;
27863;SDS011;15980;51.092;13.916;2023-01-23T02:35:22;28.83;;;9.43;;
27863;SDS011;15980;51.092;13.916;2023-01-23T02:45:26;22.52;;;7.47;;
27863;SDS011;15980;51.092;13.916;2023-01-23T02:55:27;31.13;;;9.60;;
27863;SDS011;15980;51.092;13.916;2023-01-23T03:05:27;18.65;;;6.25;;
27863;SDS011;15980;51.092;13.916;2023-01-23T03:15:27;20.98;;;7.45;;
27863;SDS011;15980;51.092;13.916;2023-01-23T03:25:28;16.25;;;7.03;;
27863;SDS011;15980;51.092;13.916;2023-01-23T03:35:28;25.02;;;8.43;;
27863;SDS011;15980;51.092;13.916;2023-01-23T03:45:29;26.10;;;7.78;;
27863;SDS011;15980;51.092;13.916;2023-01-23T03:55:29;21.77;;;7.90;;
27863;SDS011;15980;51.092;13.916;2023-01-23T04:05:30;0.30;;;0.30;;
27863;SDS011;15980;51.092;13.916;2023-01-23T04:15:31;0.47;;;0.47;;
27863;SDS011;15980;51.092;13.916;2023-01-23T04:25:31;0.30;;;0.30;;
27863;SDS011;15980;51.092;13.916;2023-01-23T04:35:32;0.40;;;0.40;;
27863;SDS011;15980;51.092;13.916;2023-01-23T04:45:32;0.10;;;0.10;;
27863;SDS011;15980;51.092;13.916;2023-01-23T04:55:32;0.00;;;0.00;;
27863;SDS011;15980;51.092;13.916;2023-01-23T05:05:33;0.10;;;0.10;;
27863;SDS011;15980;51.092;13.916;2023-01-23T05:15:33;0.43;;;0.43;;
27863;SDS011;15980;51.092;13.916;2023-01-23T05:25:33;0.20;;;0.20;;
27863;SDS011;15980;51.092;13.916;2023-01-23T05:35:34;0.10;;;0.10;;
27863;SDS011;15980;51.092;13.916;2023-01-23T05:45:34;0.00;;;0.00;;
27863;SDS011;15980;51.092;13.916;2023-01-23T05:55:36;0.10;;;0.10;;
27863;SDS011;15980;51.092;13.916;2023-01-23T06:05:38;3.63;;;2.92;;
27863;SDS011;15980;51.092;13.916;2023-01-23T06:15:39;0.10;;;0.10;;
27863;SDS011;15980;51.092;13.916;2023-01-23T06:25:40;2.85;;;2.20;;
27863;SDS011;15980;51.092;13.916;2023-01-23T06:35:41;0.10;;;0.10;;
27863;SDS011;15980;51.092;13.916;2023-01-23T06:45:45;0.00;;;0.00;;
27863;SDS011;15980;51.092;13.916;2023-01-23T06:55:45;1.17;;;1.17;;
27863;SDS011;15980;51.092;13.916;2023-01-23T07:05:46;0.10;;;0.10;;
27863;SDS011;15980;51.092;13.916;2023-01-23T07:15:46;0.30;;;0.30;;
27863;SDS011;15980;51.092;13.916;2023-01-23T07:25:46;0.10;;;0.10;;
27863;SDS011;15980;51.092;13.916;2023-01-23T07:35:47;0.10;;;0.10;;
27863;SDS011;15980;51.092;13.916;2023-01-23T07:45:47;0.10;;;0.10;;
27863;SDS011;15980;51.092;13.916;2023-01-23T07:55:48;0.10;;;0.10;;
27863;SDS011;15980;51.092;13.916;2023-01-23T08:05:48;0.10;;;0.10;;
27863;SDS011;15980;51.092;13.916;2023-01-23T08:15:49;0.10;;;0.10;;
27863;SDS011;15980;51.092;13.916;2023-01-23T08:25:53;1.65;;;1.55;;
27863;SDS011;15980;51.092;13.916;2023-01-23T08:35:55;0.10;;;0.10;;
27863;SDS011;15980;51.092;13.916;2023-01-23T08:45:57;0.10;;;0.10;;
27863;SDS011;15980;51.092;13.916;2023-01-23T08:56:01;0.10;;;0.10;;
27863;SDS011;15980;51.092;13.916;2023-01-23T09:06:06;0.00;;;0.00;;
27863;SDS011;15980;51.092;13.916;2023-01-23T09:16:08;0.10;;;0.10;;
27863;SDS011;15980;51.092;13.916;2023-01-23T09:26:09;0.10;;;0.10;;
27863;SDS011;15980;51.092;13.916;2023-01-23T09:36:11;0.08;;;0.08;;
27863;SDS011;15980;51.092;13.916;2023-01-23T09:46:14;0.10;;;0.10;;
27863;SDS011;15980;51.092;13.916;2023-01-23T09:56:40;0.10;;;0.10;;
27863;SDS011;15980;51.092;13.916;2023-01-23T10:27:38;3.75;;;1.90;;
27863;SDS011;15980;51.092;13.916;2023-01-23T10:47:49;22.08;;;8.30;;
27863;SDS011;15980;51.092;13.916;2023-01-23T10:57:52;40.83;;;14.63;;
27863;SDS011;15980;51.092;13.916;2023-01-23T11:07:54;49.47;;;16.23;;
27863;SDS011;15980;51.092;13.916;2023-01-23T11:17:55;44.45;;;15.65;;
27863;SDS011;15980;51.092;13.916;2023-01-23T11:27:58;48.17;;;16.05;;
27863;SDS011;15980;51.092;13.916;2023-01-23T11:38:00;52.20;;;16.33;;
27863;SDS011;15980;51.092;13.916;2023-01-23T12:08:31;42.35;;;15.60;;
27863;SDS011;15980;51.092;13.916;2023-01-23T12:29:34;41.67;;;15.45;;
27863;SDS011;15980;51.092;13.916;2023-01-23T13:11:13;58.75;;;19.50;;
27863;SDS011;15980;51.092;13.916;2023-01-23T13:21:28;57.53;;;18.60;;
27863;SDS011;15980;51.092;13.916;2023-01-23T13:31:39;66.32;;;22.38;;
27863;SDS011;15980;51.092;13.916;2023-01-23T13:41:45;55.10;;;18.10;;
27863;SDS011;15980;51.092;13.916;2023-01-23T13:51:47;74.07;;;22.08;;
27863;SDS011;15980;51.092;13.916;2023-01-23T14:01:53;100.30;;;25.73;;
27863;SDS011;15980;51.092;13.916;2023-01-23T14:12:03;105.85;;;24.15;;
27863;SDS011;15980;51.092;13.916;2023-01-23T14:22:04;73.90;;;22.48;;
27863;SDS011;15980;51.092;13.916;2023-01-23T14:32:19;75.28;;;21.90;;
27863;SDS011;15980;51.092;13.916;2023-01-23T14:42:25;72.57;;;21.80;;
27863;SDS011;15980;51.092;13.916;2023-01-23T14:52:29;84.68;;;21.65;;
27863;SDS011;15980;51.092;13.916;2023-01-23T15:12:30;85.85;;;24.67;;
27863;SDS011;15980;51.092;13.916;2023-01-23T15:22:30;85.50;;;24.00;;
27863;SDS011;15980;51.092;13.916;2023-01-23T15:32:30;101.05;;;23.70;;
27863;SDS011;15980;51.092;13.916;2023-01-23T15:42:32;88.55;;;23.90;;
27863;SDS011;15980;51.092;13.916;2023-01-23T15:52:52;77.03;;;20.05;;
27863;SDS011;15980;51.092;13.916;2023-01-23T16:13:31;80.55;;;23.85;;
27863;SDS011;15980;51.092;13.916;2023-01-23T16:23:31;74.80;;;21.05;;
27863;SDS011;15980;51.092;13.916;2023-01-23T16:33:33;79.87;;;24.07;;
27863;SDS011;15980;51.092;13.916;2023-01-23T16:43:33;69.72;;;21.35;;
27863;SDS011;15980;51.092;13.916;2023-01-23T16:53:37;63.55;;;19.02;;
27863;SDS011;15980;51.092;13.916;2023-01-23T17:03:41;75.35;;;22.63;;
27863;SDS011;15980;51.092;13.916;2023-01-23T17:13:43;77.83;;;20.33;;
27863;SDS011;15980;51.092;13.916;2023-01-23T17:23:43;72.15;;;21.65;;
27863;SDS011;15980;51.092;13.916;2023-01-23T17:33:43;105.90;;;28.70;;
27863;SDS011;15980;51.092;13.916;2023-01-23T17:43:44;68.18;;;21.35;;
27863;SDS011;15980;51.092;13.916;2023-01-23T17:53:44;89.38;;;25.30;;
27863;SDS011;15980;51.092;13.916;2023-01-23T18:03:45;74.03;;;22.50;;
27863;SDS011;15980;51.092;13.916;2023-01-23T18:13:57;79.75;;;23.40;;
27863;SDS011;15980;51.092;13.916;2023-01-23T18:23:58;75.03;;;22.80;;
27863;SDS011;15980;51.092;13.916;2023-01-23T18:34:08;69.82;;;22.60;;
27863;SDS011;15980;51.092;13.916;2023-01-23T18:44:15;81.47;;;23.23;;
27863;SDS011;15980;51.092;13.916;2023-01-23T19:04:53;80.35;;;22.30;;
27863;SDS011;15980;51.092;13.916;2023-01-23T19:25:21;78.57;;;22.73;;
27863;SDS011;15980;51.092;13.916;2023-01-23T19:35:22;77.93;;;22.60;;
27863;SDS011;15980;51.092;13.916;2023-01-23T19:45:22;73.93;;;22.55;;
27863;SDS011;15980;51.092;13.916;2023-01-23T19:55:27;112.03;;;24.80;;
27863;SDS011;15980;51.092;13.916;2023-01-23T20:05:29;96.10;;;23.90;;
27863;SDS011;15980;51.092;13.916;2023-01-23T20:15:29;93.43;;;24.27;;
27863;SDS011;15980;51.092;13.916;2023-01-23T20:25:30;94.88;;;24.67;;
27863;SDS011;15980;51.092;13.916;2023-01-23T20:35:30;81.20;;;23.83;;
27863;SDS011;15980;51.092;13.916;2023-01-23T20:45:30;93.32;;;23.13;;
27863;SDS011;15980;51.092;13.916;2023-01-23T20:55:32;96.27;;;25.10;;
27863;SDS011;15980;51.092;13.916;2023-01-23T21:05:33;100.15;;;25.42;;
27863;SDS011;15980;51.092;13.916;2023-01-23T21:15:33;105.28;;;26.15;;
27863;SDS011;15980;51.092;13.916;2023-01-23T21:25:34;102.20;;;25.92;;
27863;SDS011;15980;51.092;13.916;2023-01-23T21:35:34;119.93;;;25.10;;
27863;SDS011;15980;51.092;13.916;2023-01-23T21:45:35;126.53;;;27.48;;
27863;SDS011;15980;51.092;13.916;2023-01-23T21:55:35;114.22;;;26.85;;
27863;SDS011;15980;51.092;13.916;2023-01-23T22:05:35;98.30;;;26.58;;
27863;SDS011;15980;51.092;13.916;2023-01-23T22:15:35;89.95;;;25.80;;
27863;SDS011;15980;51.092;13.916;2023-01-23T22:25:36;97.00;;;25.92;;
27863;SDS011;15980;51.092;13.916;2023-01-23T22:35:37;94.30;;;24.40;;
27863;SDS011;15980;51.092;13.916;2023-01-23T22:45:38;90.65;;;23.63;;
27863;SDS011;15980;51.092;13.916;2023-01-23T22:55:38;83.60;;;24.02;;
27863;SDS011;15980;51.092;13.916;2023-01-23T23:05:38;89.82;;;25.08;;
27863;SDS011;15980;51.092;13.916;2023-01-23T23:15:39;84.22;;;23.90;;
27863;SDS011;15980;51.092;13.916;2023-01-23T23:25:39;92.32;;;23.88;;
27863;SDS011;15980;51.092;13.916;2023-01-23T23:35:39;96.70;;;27.02;;
27863;SDS011;15980;51.092;13.916;2023-01-23T23:45:45;94.35;;;25.63;;
27863;SDS011;15980;51.092;13.916;2023-01-23T23:55:49;108.75;;;26.42;;
